Time;durP1;ratioP1;P1;durP2;ratioP2;P2;SDS_P1;SDS_P2;PMS_P1;PMS_P2;Temp;Humidity;BMP_temperature;BMP_pressure;BME280_temperature;BME280_humidity;BME280_pressure;Samples;Min_cycle;Max_cycle;Signal;HPM_P1;HPM_P2
2021/12/17 00:00:17;;;;;;;69.07;26.58;;;9.00;99.90;;;;;;4982744;28;20129;-71
2021/12/17 00:05:20;;;;;;;76.13;28.45;;;9.00;99.90;;;;;;4998982;28;20049;-71
2021/12/17 00:07:54;;;;;;;69.45;26.75;;;9.00;99.90;;;;;;4983398;28;20049;-71
2021/12/17 00:10:19;;;;;;;136.48;35.70;;;9.00;99.90;;;;;;4981933;28;20060;-71
2021/12/17 00:12:46;;;;;;;100.30;33.67;;;9.00;99.90;;;;;;4998352;28;20084;-71
2021/12/17 00:15:12;;;;;;;96.35;31.77;;;9.00;99.90;;;;;;4997893;28;20053;-71
2021/12/17 00:17:49;;;;;;;69.15;28.52;;;9.00;99.90;;;;;;4997927;28;20072;-71
2021/12/17 00:20:57;;;;;;;98.57;32.78;;;9.00;99.90;;;;;;4996838;28;20509;-71
2021/12/17 00:40:23;;;;;;;78.75;30.52;;;9.00;99.90;;;;;;4997776;28;20046;-71
2021/12/17 00:53:07;;;;;;;74.45;27.20;;;9.00;99.90;;;;;;4997671;28;20050;-71
2021/12/17 00:55:32;;;;;;;79.97;29.10;;;9.00;99.90;;;;;;4997201;28;20041;-71
2021/12/17 00:57:58;;;;;;;87.32;26.98;;;9.00;99.90;;;;;;4997271;28;20038;-71
2021/12/17 01:00:24;;;;;;;71.82;26.27;;;8.90;99.90;;;;;;4997240;28;20045;-71
2021/12/17 01:02:50;;;;;;;85.78;27.25;;;8.90;99.90;;;;;;4997201;28;20100;-71
2021/12/17 01:05:24;;;;;;;74.00;26.42;;;8.90;99.90;;;;;;4997068;28;20048;-71
2021/12/17 01:07:53;;;;;;;63.25;24.13;;;8.90;99.90;;;;;;4997070;28;20509;-71
2021/12/17 01:10:24;;;;;;;62.33;25.05;;;8.90;99.90;;;;;;4996967;28;20521;-71
2021/12/17 01:12:50;;;;;;;79.05;25.80;;;8.90;99.90;;;;;;4997025;28;20030;-71
2021/12/17 01:15:19;;;;;;;80.47;25.88;;;8.90;99.90;;;;;;4997148;28;20041;-71
2021/12/17 01:17:51;;;;;;;62.50;25.13;;;8.90;99.90;;;;;;4996845;28;20048;-71
2021/12/17 01:22:58;;;;;;;64.40;24.10;;;8.90;99.90;;;;;;4996748;28;20053;-71
2021/12/17 01:36:32;;;;;;;62.63;23.25;;;8.90;99.90;;;;;;4996444;28;20050;-71
2021/12/17 01:42:06;;;;;;;62.05;22.15;;;8.90;99.90;;;;;;4996267;28;20038;-71
2021/12/17 01:44:34;;;;;;;44.67;22.00;;;9.00;99.90;;;;;;4996662;28;20041;-72
2021/12/17 01:47:00;;;;;;;55.65;22.42;;;9.00;99.90;;;;;;4980477;28;20081;-71
2021/12/17 02:00:01;;;;;;;56.72;21.38;;;9.00;99.90;;;;;;4996111;28;20050;-71
2021/12/17 02:02:29;;;;;;;48.42;20.35;;;9.00;99.90;;;;;;4979974;28;20042;-71
2021/12/17 02:04:55;;;;;;;48.33;19.25;;;9.00;99.90;;;;;;4996028;28;20092;-71
2021/12/17 02:07:20;;;;;;;41.42;18.85;;;9.00;99.90;;;;;;4996045;28;20034;-71
2021/12/17 02:21:25;;;;;;;57.92;20.20;;;9.10;99.90;;;;;;4979103;28;20498;-71
2021/12/17 02:32:05;;;;;;;28.50;14.98;;;9.00;99.90;;;;;;4996064;28;20064;-71
2021/12/17 02:37:24;;;;;;;33.13;15.32;;;9.10;99.90;;;;;;4966302;28;20068;-71
2021/12/17 02:48:04;;;;;;;43.85;16.23;;;9.10;99.90;;;;;;5000104;28;20042;-71
2021/12/17 02:50:30;;;;;;;36.55;15.55;;;9.00;99.90;;;;;;5016064;28;20044;-71
2021/12/17 02:52:58;;;;;;;26.02;13.77;;;9.00;99.90;;;;;;4999877;28;20397;-71
2021/12/17 02:55:24;;;;;;;26.17;13.57;;;9.00;99.90;;;;;;4999448;28;20037;-71
2021/12/17 02:57:51;;;;;;;35.95;14.88;;;9.00;99.90;;;;;;4999427;28;20469;-71
2021/12/17 03:00:17;;;;;;;29.17;13.70;;;9.00;99.90;;;;;;4999748;28;20241;-71
2021/12/17 03:02:45;;;;;;;27.35;13.10;;;9.00;99.90;;;;;;4999629;28;20034;-71
2021/12/17 03:05:11;;;;;;;30.55;13.52;;;9.00;99.90;;;;;;4999278;28;20038;-71
2021/12/17 03:07:43;;;;;;;29.00;13.23;;;9.00;99.90;;;;;;4999352;28;20038;-71
2021/12/17 03:10:11;;;;;;;21.67;11.85;;;9.00;99.90;;;;;;4999639;28;20046;-71
2021/12/17 03:12:48;;;;;;;20.17;11.25;;;9.00;99.90;;;;;;4999472;28;20096;-71
2021/12/17 03:23:31;;;;;;;23.90;12.48;;;9.10;99.90;;;;;;4999262;28;20050;-71
2021/12/17 03:25:59;;;;;;;21.40;11.07;;;9.10;99.90;;;;;;4998990;28;20038;-71
2021/12/17 03:28:25;;;;;;;35.03;14.57;;;9.10;99.90;;;;;;4998903;28;20513;-71
2021/12/17 03:30:51;;;;;;;27.25;12.65;;;9.10;99.90;;;;;;4982628;28;20502;-71
2021/12/17 03:33:17;;;;;;;27.17;12.43;;;9.10;99.90;;;;;;4999094;28;20042;-71
2021/12/17 03:35:42;;;;;;;24.30;11.85;;;9.10;99.90;;;;;;4998789;28;20042;-71
2021/12/17 03:38:08;;;;;;;25.67;12.45;;;9.10;99.90;;;;;;4999543;28;20046;-71
2021/12/17 03:40:34;;;;;;;20.65;11.55;;;9.00;99.90;;;;;;4998753;28;20040;-71
2021/12/17 03:43:03;;;;;;;23.17;12.45;;;9.00;99.90;;;;;;4998764;28;20037;-71
2021/12/17 03:45:29;;;;;;;21.70;11.38;;;9.00;99.90;;;;;;4998532;28;20113;-71
2021/12/17 03:47:56;;;;;;;20.05;11.98;;;9.00;99.90;;;;;;4982633;28;20042;-71
2021/12/17 03:50:22;;;;;;;24.13;12.45;;;9.10;99.90;;;;;;4982611;28;20045;-71
2021/12/17 03:52:48;;;;;;;18.13;11.50;;;9.10;99.90;;;;;;4998421;28;20041;-71
2021/12/17 03:55:14;;;;;;;31.02;13.35;;;9.10;99.90;;;;;;4998375;28;20418;-71
2021/12/17 03:57:40;;;;;;;23.30;11.88;;;9.10;99.90;;;;;;4998425;28;20029;-71
2021/12/17 04:00:08;;;;;;;28.40;13.55;;;9.10;99.90;;;;;;4998252;28;20057;-71
2021/12/17 04:02:34;;;;;;;21.90;11.55;;;9.00;99.90;;;;;;4982047;28;20044;-71
2021/12/17 04:05:00;;;;;;;29.23;13.23;;;9.10;99.90;;;;;;4998453;28;20124;-71
2021/12/17 04:07:25;;;;;;;27.40;13.02;;;9.00;99.90;;;;;;4998163;28;20508;-71
2021/12/17 04:09:51;;;;;;;27.52;12.85;;;9.10;99.90;;;;;;4982033;28;20096;-71
2021/12/17 04:12:20;;;;;;;30.70;14.23;;;9.00;99.90;;;;;;4998453;28;20045;-71
2021/12/17 04:14:47;;;;;;;33.65;14.35;;;9.00;99.90;;;;;;4997828;28;20470;-72
2021/12/17 04:17:22;;;;;;;25.33;12.52;;;9.00;99.90;;;;;;4998264;28;20053;-71
2021/12/17 04:19:47;;;;;;;28.48;13.88;;;9.00;99.90;;;;;;4999076;28;20092;-71
2021/12/17 04:22:13;;;;;;;31.02;13.90;;;8.90;99.90;;;;;;4998825;28;20030;-71
2021/12/17 04:24:39;;;;;;;31.05;14.10;;;9.00;99.90;;;;;;4998089;28;20402;-72
2021/12/17 04:27:06;;;;;;;30.90;14.68;;;9.00;99.90;;;;;;4997841;28;20490;-71
2021/12/17 04:29:33;;;;;;;26.52;14.10;;;9.00;99.90;;;;;;4997768;28;20045;-71
2021/12/17 04:31:59;;;;;;;34.22;14.60;;;9.00;99.90;;;;;;4981549;28;20501;-71
2021/12/17 04:34:25;;;;;;;36.13;14.32;;;8.90;99.90;;;;;;4981826;28;20084;-71
2021/12/17 04:36:53;;;;;;;29.33;13.98;;;8.90;99.90;;;;;;4997612;28;20080;-71
2021/12/17 04:39:21;;;;;;;35.97;15.02;;;8.90;99.90;;;;;;4997595;28;20054;-71
2021/12/17 04:41:51;;;;;;;38.78;14.48;;;8.90;99.90;;;;;;4997858;28;20054;-71
2021/12/17 04:44:27;;;;;;;23.73;12.88;;;9.00;99.90;;;;;;4997586;28;20049;-71
2021/12/17 04:57:16;;;;;;;32.97;15.30;;;8.90;99.90;;;;;;4981495;28;20520;-71
2021/12/17 04:57:49;;;;;;;27.13;13.77;;;8.90;99.90;;;;;;4997275;28;20089;-71
2021/12/17 05:00:23;;;;;;;28.67;13.65;;;8.80;99.90;;;;;;4997200;28;20046;-71
2021/12/17 05:02:52;;;;;;;41.75;17.17;;;8.80;99.90;;;;;;4997419;28;20553;-71
2021/12/17 05:05:20;;;;;;;28.33;14.63;;;8.80;99.90;;;;;;4996584;28;20124;-71
2021/12/17 05:07:52;;;;;;;25.65;13.35;;;8.80;99.90;;;;;;4997011;28;20042;-71
2021/12/17 05:18:32;;;;;;;22.45;12.35;;;8.90;99.90;;;;;;4996812;28;20050;-71
2021/12/17 05:21:02;;;;;;;28.13;13.88;;;8.90;99.90;;;;;;4996870;28;20092;-71
2021/12/17 05:23:33;;;;;;;20.45;11.88;;;8.90;99.90;;;;;;4997039;28;20037;-71
2021/12/17 05:26:02;;;;;;;23.42;13.38;;;8.90;99.90;;;;;;4996704;28;20490;-71
2021/12/17 05:28:27;;;;;;;25.50;13.38;;;8.90;99.90;;;;;;4980692;28;20052;-71
2021/12/17 05:30:55;;;;;;;24.75;12.73;;;8.90;99.90;;;;;;4996962;28;20033;-71
2021/12/17 05:33:22;;;;;;;29.70;13.25;;;8.90;99.90;;;;;;4996602;28;20038;-71
2021/12/17 05:35:48;;;;;;;30.63;14.15;;;9.00;99.90;;;;;;4996579;28;20088;-71
2021/12/17 05:38:15;;;;;;;32.25;15.02;;;9.00;99.90;;;;;;4996678;28;20128;-72
2021/12/17 05:40:41;;;;;;;27.88;14.50;;;9.00;99.90;;;;;;4996410;28;20481;-72
2021/12/17 05:43:07;;;;;;;29.02;14.10;;;8.90;99.90;;;;;;4996452;28;20041;-71
2021/12/17 05:48:21;;;;;;;33.47;14.90;;;9.00;99.90;;;;;;4996570;28;20049;-71
2021/12/17 05:50:49;;;;;;;32.50;14.55;;;8.90;99.90;;;;;;4980117;28;20053;-71
2021/12/17 05:53:15;;;;;;;37.28;14.80;;;8.90;99.90;;;;;;4996213;28;20045;-71
2021/12/17 05:55:41;;;;;;;32.55;14.63;;;8.90;99.90;;;;;;4996167;28;20046;-71
2021/12/17 05:58:08;;;;;;;32.58;15.13;;;8.90;99.90;;;;;;4996371;28;20042;-71
2021/12/17 06:00:35;;;;;;;25.65;13.27;;;8.90;99.90;;;;;;4996208;28;20046;-71
2021/12/17 06:03:02;;;;;;;54.72;16.55;;;8.90;99.90;;;;;;4996133;28;20048;-71
2021/12/17 06:05:29;;;;;;;34.80;15.32;;;8.90;99.90;;;;;;4996317;28;20091;-71
2021/12/17 06:07:55;;;;;;;42.58;16.55;;;8.90;99.90;;;;;;4996417;28;20056;-71
2021/12/17 06:10:21;;;;;;;53.67;17.40;;;8.80;99.90;;;;;;4995988;28;20124;-72
2021/12/17 06:12:47;;;;;;;33.25;15.23;;;8.90;99.90;;;;;;4996243;28;20050;-71
2021/12/17 06:15:16;;;;;;;42.13;16.92;;;8.80;99.90;;;;;;4996049;28;20045;-71
2021/12/17 06:17:45;;;;;;;38.08;16.25;;;8.90;99.90;;;;;;4995232;28;20038;-71
2021/12/17 06:20:13;;;;;;;40.38;15.82;;;8.80;99.90;;;;;;4979893;28;20044;-71
2021/12/17 06:22:39;;;;;;;30.40;13.88;;;8.80;99.90;;;;;;4995823;28;20449;-71
2021/12/17 06:25:07;;;;;;;40.88;16.48;;;8.80;99.90;;;;;;4995833;28;20073;-71
2021/12/17 06:27:33;;;;;;;44.53;15.95;;;8.80;99.90;;;;;;4995900;28;20088;-71
2021/12/17 06:29:59;;;;;;;26.42;12.88;;;8.80;99.90;;;;;;4995845;28;20453;-72
2021/12/17 06:32:25;;;;;;;23.52;12.23;;;8.80;99.90;;;;;;4995857;28;20045;-71
2021/12/17 06:34:51;;;;;;;27.08;13.38;;;8.70;99.90;;;;;;4995661;28;20406;-71
2021/12/17 06:37:17;;;;;;;23.15;12.45;;;8.80;99.90;;;;;;4979527;28;20037;-71
2021/12/17 06:39:44;;;;;;;24.35;12.82;;;8.80;99.90;;;;;;4995677;28;20069;-71
2021/12/17 06:42:10;;;;;;;22.80;12.52;;;8.80;99.90;;;;;;4995743;28;20041;-71
2021/12/17 06:44:37;;;;;;;27.85;12.98;;;8.80;99.90;;;;;;4995603;28;20096;-72
2021/12/17 07:35:01;;;;;;;27.83;13.45;;;8.60;99.90;;;;;;5000397;28;20042;-74
2021/12/17 07:39:54;;;;;;;30.92;13.75;;;8.70;99.90;;;;;;5000765;28;20498;-74
2021/12/17 07:42:20;;;;;;;31.55;13.68;;;8.60;99.90;;;;;;5000561;28;20061;-74
2021/12/17 07:44:45;;;;;;;29.90;13.95;;;8.70;99.90;;;;;;4984197;28;20037;-74
2021/12/17 07:47:11;;;;;;;24.80;12.27;;;8.70;99.90;;;;;;5000797;28;20518;-74
2021/12/17 07:49:36;;;;;;;26.38;13.10;;;8.60;99.90;;;;;;5000110;28;20083;-75
2021/12/17 07:52:03;;;;;;;21.30;11.95;;;8.70;99.90;;;;;;4999661;28;20041;-74
2021/12/17 07:54:29;;;;;;;23.20;12.55;;;8.70;99.90;;;;;;4984992;28;20486;-74
2021/12/17 07:56:54;;;;;;;23.20;12.15;;;8.70;99.90;;;;;;5000777;28;20044;-74
2021/12/17 07:59:20;;;;;;;28.23;12.88;;;8.70;99.90;;;;;;5000652;28;20510;-74
2021/12/17 08:01:46;;;;;;;27.00;12.63;;;8.70;99.90;;;;;;5000650;28;20060;-74
2021/12/17 08:04:11;;;;;;;28.45;13.32;;;8.60;99.90;;;;;;4984687;28;20038;-75
2021/12/17 08:06:40;;;;;;;31.58;13.73;;;8.70;99.90;;;;;;5001081;28;20037;-74
2021/12/17 08:09:06;;;;;;;30.15;14.05;;;8.70;99.90;;;;;;4999816;28;20089;-74
2021/12/17 08:11:38;;;;;;;30.52;14.45;;;8.70;99.90;;;;;;4999903;28;20037;-74
2021/12/17 08:14:07;;;;;;;36.47;13.75;;;8.70;99.90;;;;;;4999729;28;20486;-73
2021/12/17 08:16:41;;;;;;;23.00;12.75;;;8.70;99.90;;;;;;4999645;28;20053;-73
2021/12/17 08:23:09;;;;;;;28.55;13.20;;;8.60;99.90;;;;;;4999521;28;20046;-72
2021/12/17 08:24:46;;;;;;;25.45;12.65;;;8.70;99.90;;;;;;4999357;28;20045;-73
2021/12/17 08:30:22;;;;;;;;;;;8.70;99.90;;;;;;4941549;29;20055;-74
2021/12/17 08:32:49;;;;;;;20.73;11.10;;;8.70;99.90;;;;;;4941170;29;19945;-74
2021/12/17 08:35:15;;;;;;;26.48;12.73;;;8.70;99.90;;;;;;4971130;28;20116;-74
2021/12/17 08:37:41;;;;;;;31.23;13.98;;;8.70;99.90;;;;;;4999847;28;20038;-74
2021/12/17 08:40:08;;;;;;;27.40;13.30;;;8.70;99.90;;;;;;4998693;28;20073;-74
2021/12/17 08:42:33;;;;;;;33.22;14.23;;;8.70;99.90;;;;;;4999198;28;20041;-74
2021/12/17 08:45:00;;;;;;;19.98;11.63;;;8.70;99.90;;;;;;4998750;28;20034;-73
2021/12/17 08:47:26;;;;;;;27.77;13.52;;;8.70;99.90;;;;;;4998291;28;20056;-74
2021/12/17 08:49:53;;;;;;;22.30;12.80;;;8.70;99.90;;;;;;4998032;28;20038;-73
2021/12/17 08:52:19;;;;;;;27.67;14.00;;;8.80;99.90;;;;;;4997747;28;20046;-73
2021/12/17 08:54:45;;;;;;;29.13;13.82;;;8.80;99.90;;;;;;4997967;28;20042;-73
2021/12/17 08:57:10;;;;;;;21.48;11.70;;;8.80;99.90;;;;;;4998363;28;20037;-74
2021/12/17 08:59:36;;;;;;;26.73;13.50;;;8.80;99.90;;;;;;4997959;28;20053;-74
2021/12/17 09:02:04;;;;;;;28.25;13.25;;;8.80;99.90;;;;;;4997610;28;20034;-74
2021/12/17 09:04:29;;;;;;;25.50;13.40;;;8.80;99.90;;;;;;4997650;28;20406;-74
2021/12/17 09:06:56;;;;;;;23.45;12.15;;;8.80;99.90;;;;;;4997469;28;20037;-74
2021/12/17 09:09:22;;;;;;;22.00;12.77;;;8.80;99.90;;;;;;4997349;28;20129;-74
2021/12/17 09:11:49;;;;;;;22.50;12.35;;;8.80;99.90;;;;;;4997363;28;20042;-75
2021/12/17 09:14:19;;;;;;;19.85;12.05;;;8.80;99.90;;;;;;4997121;28;20129;-75
2021/12/17 09:16:49;;;;;;;19.98;12.00;;;8.90;99.90;;;;;;4997532;28;20096;-74
2021/12/17 09:19:14;;;;;;;19.52;12.30;;;8.90;99.90;;;;;;5013442;28;20498;-75
2021/12/17 09:21:40;;;;;;;20.17;11.70;;;8.90;99.90;;;;;;4997321;28;20132;-73
2021/12/17 09:24:06;;;;;;;21.85;12.02;;;8.90;99.90;;;;;;4981005;28;20034;-74
2021/12/17 09:26:35;;;;;;;20.33;11.50;;;8.90;99.90;;;;;;4997356;28;20045;-74
2021/12/17 09:29:01;;;;;;;18.42;11.10;;;8.90;99.90;;;;;;4997491;28;20038;-75
2021/12/17 09:31:26;;;;;;;23.27;12.57;;;9.00;99.90;;;;;;4997271;28;20520;-74
2021/12/17 09:33:52;;;;;;;21.48;11.90;;;9.00;99.90;;;;;;4997009;28;20045;-74
2021/12/17 09:36:19;;;;;;;20.60;12.05;;;9.00;99.90;;;;;;4997066;28;20046;-75
2021/12/17 09:38:49;;;;;;;21.10;12.02;;;9.00;99.90;;;;;;4997024;28;20042;-74
2021/12/17 09:41:22;;;;;;;18.08;10.70;;;9.10;99.90;;;;;;4997806;28;20109;-74
2021/12/17 09:43:48;;;;;;;;;;;9.00;99.90;;;;;;4981154;28;20501;-75
2021/12/17 09:46:16;;;;;;;20.30;11.10;;;9.10;99.90;;;;;;4997267;28;19921;-74
2021/12/17 09:48:45;;;;;;;20.20;12.07;;;9.10;99.90;;;;;;4996647;28;20048;-74
2021/12/17 09:51:11;;;;;;;17.55;11.40;;;9.10;99.90;;;;;;4997278;28;20045;-74
2021/12/17 09:53:37;;;;;;;29.60;13.50;;;9.10;99.90;;;;;;4980476;28;20394;-75
2021/12/17 09:56:04;;;;;;;17.83;10.70;;;9.10;99.90;;;;;;4997029;28;20053;-74
2021/12/17 09:58:30;;;;;;;20.50;11.95;;;9.20;99.90;;;;;;4996966;28;20494;-74
2021/12/17 10:00:56;;;;;;;16.70;11.23;;;9.20;99.90;;;;;;4996496;28;20045;-73
2021/12/17 10:03:22;;;;;;;24.10;12.02;;;9.20;99.90;;;;;;4996422;28;20076;-74
2021/12/17 10:05:48;;;;;;;24.55;12.80;;;9.20;99.90;;;;;;4996337;28;20038;-74
2021/12/17 10:08:17;;;;;;;20.33;11.57;;;9.20;99.90;;;;;;4996641;28;20037;-74
2021/12/17 10:10:47;;;;;;;20.05;11.60;;;9.20;99.90;;;;;;4980231;28;20103;-74
2021/12/17 10:13:14;;;;;;;21.23;11.68;;;9.30;99.90;;;;;;4980324;28;20042;-74
2021/12/17 10:15:46;;;;;;;18.52;10.82;;;9.30;99.90;;;;;;4980052;28;20468;-74
2021/12/17 10:18:13;;;;;;;21.08;11.85;;;9.30;99.90;;;;;;4980283;28;20413;-75
2021/12/17 10:20:47;;;;;;;19.77;11.88;;;9.30;99.90;;;;;;4996466;28;20083;-75
2021/12/17 10:23:13;;;;;;;19.20;11.63;;;9.30;99.90;;;;;;4996394;28;20457;-74
2021/12/17 10:25:44;;;;;;;22.92;12.10;;;9.30;99.90;;;;;;4996864;28;20042;-74
2021/12/17 10:28:12;;;;;;;21.05;12.43;;;9.30;99.90;;;;;;4996409;28;20052;-75
2021/12/17 10:30:39;;;;;;;21.65;12.27;;;9.30;99.90;;;;;;5013329;28;20060;-75
2021/12/17 10:33:08;;;;;;;17.42;11.35;;;9.30;99.90;;;;;;4980152;28;20038;-75
2021/12/17 10:35:38;;;;;;;17.88;11.00;;;9.30;99.90;;;;;;4997426;28;20073;-76
2021/12/17 10:38:11;;;;;;;13.45;9.50;;;9.30;99.90;;;;;;4999967;28;20098;-76
2021/12/17 10:40:43;;;;;;;15.80;10.48;;;9.30;99.90;;;;;;4998615;28;20065;-75
2021/12/17 10:46:01;;;;;;;21.35;11.52;;;9.40;99.90;;;;;;4998353;28;20108;-75
2021/12/17 10:48:49;;;;;;;18.15;11.23;;;9.40;99.90;;;;;;4982329;28;20433;-75
2021/12/17 10:51:56;;;;;;;18.08;11.55;;;9.40;99.90;;;;;;4982103;28;20071;-75
2021/12/17 10:54:21;;;;;;;20.52;11.32;;;9.40;99.90;;;;;;4998654;28;20053;-75
2021/12/17 10:56:48;;;;;;;17.85;11.80;;;9.40;99.90;;;;;;4998490;28;20406;-75
2021/12/17 10:59:19;;;;;;;17.33;10.85;;;9.50;99.90;;;;;;4998229;28;20045;-75
2021/12/17 11:01:47;;;;;;;18.13;10.57;;;9.50;99.90;;;;;;4997882;28;20084;-75
2021/12/17 11:04:30;;;;;;;17.15;10.30;;;9.50;99.90;;;;;;4999267;28;20107;-75
2021/12/17 11:07:00;;;;;;;;;;;9.50;99.90;;;;;;5000306;28;20124;-75
2021/12/17 11:09:57;;;;;;;21.20;11.65;;;9.50;99.90;;;;;;5016177;28;19968;-74
2021/12/17 11:12:24;;;;;;;18.00;11.32;;;9.50;99.90;;;;;;4999804;28;20049;-75
2021/12/17 11:14:50;;;;;;;18.90;10.93;;;9.50;99.90;;;;;;4999834;28;20561;-75
2021/12/17 11:17:22;;;;;;;15.93;9.75;;;9.60;99.90;;;;;;4983975;28;20050;-75
2021/12/17 11:19:54;;;;;;;16.33;10.25;;;9.60;99.90;;;;;;4999446;28;20042;-75
2021/12/17 11:22:23;;;;;;;17.65;10.30;;;9.70;99.90;;;;;;5000882;28;20434;-75
2021/12/17 11:24:49;;;;;;;16.27;10.35;;;9.70;99.90;;;;;;4983559;28;20125;-75
2021/12/17 11:27:15;;;;;;;18.65;11.57;;;9.70;99.90;;;;;;5000001;28;20120;-75
2021/12/17 11:29:42;;;;;;;17.95;11.10;;;9.70;99.90;;;;;;4983426;28;20477;-75
2021/12/17 11:32:08;;;;;;;17.30;9.93;;;9.70;99.90;;;;;;4999768;28;20045;-76
2021/12/17 11:34:34;;;;;;;24.17;12.05;;;9.70;99.90;;;;;;5000289;28;20145;-74
2021/12/17 11:37:03;;;;;;;16.85;9.70;;;9.80;99.90;;;;;;5000719;28;20128;-75
2021/12/17 11:39:31;;;;;;;17.30;10.65;;;9.80;99.90;;;;;;4999658;28;20096;-74
2021/12/17 11:42:24;;;;;;;17.92;9.80;;;9.80;99.90;;;;;;4999795;28;20088;-74
2021/12/17 11:45:22;;;;;;;18.40;10.55;;;9.80;99.90;;;;;;4983178;28;20041;-74
2021/12/17 11:47:37;;;;;;;17.88;10.43;;;9.70;99.90;;;;;;4999973;28;20046;-74
2021/12/17 11:50:06;;;;;;;16.50;10.00;;;9.70;99.90;;;;;;4983278;28;20521;-75
2021/12/17 11:52:35;;;;;;;12.60;8.73;;;9.80;99.90;;;;;;4999444;28;20516;-74
2021/12/17 11:55:27;;;;;;;13.48;9.35;;;9.80;99.90;;;;;;4999579;28;20427;-75
2021/12/17 11:58:04;;;;;;;19.13;11.38;;;9.80;99.90;;;;;;4982857;28;20521;-75
2021/12/17 12:00:32;;;;;;;22.70;11.63;;;9.80;99.90;;;;;;4998919;28;20525;-74
2021/12/17 12:03:19;;;;;;;21.95;10.85;;;9.80;99.90;;;;;;4999660;28;20048;-75
2021/12/17 12:05:47;;;;;;;22.00;11.70;;;9.80;99.90;;;;;;4999389;28;20503;-75
2021/12/17 12:08:47;;;;;;;18.65;10.65;;;9.80;99.90;;;;;;4999377;28;20042;-75
2021/12/17 12:11:18;;;;;;;20.67;11.32;;;9.80;99.90;;;;;;4999272;28;20042;-75
2021/12/17 12:13:46;;;;;;;14.75;8.90;;;9.80;99.90;;;;;;4999041;28;20103;-75
2021/12/17 12:16:20;;;;;;;16.63;9.60;;;9.80;99.90;;;;;;4998610;28;20045;-75
2021/12/17 12:18:50;;;;;;;15.57;9.80;;;9.80;99.90;;;;;;4999019;28;20512;-74
2021/12/17 12:21:21;;;;;;;15.07;9.38;;;9.80;99.90;;;;;;4998934;28;20041;-75
2021/12/17 12:24:09;;;;;;;16.80;9.45;;;9.80;99.90;;;;;;4999102;28;20041;-75
2021/12/17 12:26:53;;;;;;;15.38;8.98;;;9.90;99.90;;;;;;4999042;28;20048;-75
2021/12/17 12:29:23;;;;;;;17.75;9.45;;;9.90;99.90;;;;;;4998773;28;20042;-75
2021/12/17 12:31:55;;;;;;;16.55;8.57;;;9.90;99.90;;;;;;4999142;28;20519;-74
2021/12/17 12:34:31;;;;;;;12.32;8.30;;;9.90;99.90;;;;;;4998418;28;20494;-75
2021/12/17 12:36:59;;;;;;;11.15;7.78;;;10.00;99.90;;;;;;4998086;28;20042;-76
2021/12/17 12:40:03;;;;;;;13.15;8.02;;;10.00;99.90;;;;;;4982374;28;20046;-74
2021/12/17 12:42:30;;;;;;;11.77;6.68;;;10.10;99.90;;;;;;4999084;28;20490;-75
2021/12/17 12:44:55;;;;;;;8.13;5.68;;;10.00;99.90;;;;;;4999833;28;20045;-75
2021/12/17 12:47:24;;;;;;;8.55;6.18;;;10.10;99.90;;;;;;4999438;28;20049;-76
2021/12/17 12:49:54;;;;;;;9.82;6.13;;;10.10;99.90;;;;;;4983030;28;20041;-75
2021/12/17 12:52:32;;;;;;;9.65;6.57;;;10.10;99.90;;;;;;4999504;28;20042;-74
2021/12/17 12:55:06;;;;;;;7.95;5.00;;;10.10;99.90;;;;;;4999124;28;20048;-74
2021/12/17 12:57:35;;;;;;;7.40;5.18;;;10.10;99.90;;;;;;4999039;28;20489;-75
2021/12/17 13:00:07;;;;;;;8.38;5.65;;;10.10;99.90;;;;;;4998800;28;20037;-75
2021/12/17 13:02:33;;;;;;;6.28;4.70;;;10.10;99.90;;;;;;4998942;28;20042;-75
2021/12/17 13:05:00;;;;;;;8.00;4.72;;;10.10;99.90;;;;;;4999350;28;20041;-74
2021/12/17 13:07:32;;;;;;;6.97;3.92;;;10.10;99.90;;;;;;4982284;28;20076;-75
2021/12/17 13:10:04;;;;;;;6.03;3.88;;;10.10;99.90;;;;;;5014591;28;20046;-73
2021/12/17 13:12:30;;;;;;;7.00;3.80;;;10.10;99.90;;;;;;4998082;28;20498;-74
2021/12/17 13:14:57;;;;;;;5.55;3.90;;;10.10;99.90;;;;;;4998176;28;20046;-74
2021/12/17 13:20:17;;;;;;;8.38;4.80;;;10.10;99.90;;;;;;4997772;28;20045;-74
2021/12/17 13:20:41;;;;;;;8.25;3.47;;;10.10;99.90;;;;;;4997044;28;20049;-73
2021/12/17 13:23:17;;;;;;;6.40;2.92;;;10.10;99.90;;;;;;4997263;28;20049;-74
2021/12/17 13:25:43;;;;;;;4.85;2.40;;;10.10;99.90;;;;;;4997609;28;20042;-74
2021/12/17 13:28:09;;;;;;;3.78;2.63;;;10.00;99.90;;;;;;4996615;28;20403;-74
2021/12/17 13:30:34;;;;;;;4.72;2.53;;;10.10;99.90;;;;;;4996658;28;20140;-74
2021/12/17 13:33:00;;;;;;;6.00;3.08;;;10.10;99.90;;;;;;4996649;28;20040;-74
2021/12/17 13:35:27;;;;;;;7.70;3.25;;;10.10;99.90;;;;;;4996617;28;20128;-73
2021/12/17 13:38:01;;;;;;;4.93;3.30;;;10.10;99.90;;;;;;4996620;28;20077;-74
2021/12/17 13:40:27;;;;;;;5.38;2.80;;;10.10;99.90;;;;;;4980242;28;20457;-74
2021/12/17 13:42:55;;;;;;;4.35;3.45;;;10.10;99.90;;;;;;4996850;28;20398;-74
2021/12/17 13:45:21;;;;;;;4.45;3.38;;;10.00;99.90;;;;;;4996628;28;20037;-73
2021/12/17 13:47:54;;;;;;;6.18;4.15;;;10.00;99.90;;;;;;4996398;28;20508;-74
2021/12/17 13:50:25;;;;;;;8.50;4.57;;;10.00;99.90;;;;;;4996439;28;20057;-73
2021/12/17 13:52:53;;;;;;;5.97;5.10;;;10.00;99.90;;;;;;4996348;28;20033;-73
2021/12/17 13:55:29;;;;;;;6.40;4.65;;;10.00;99.90;;;;;;4996269;28;20494;-73
2021/12/17 13:57:56;;;;;;;5.32;4.45;;;10.00;99.90;;;;;;4980077;28;20044;-73
2021/12/17 14:00:33;;;;;;;6.05;4.35;;;10.00;99.90;;;;;;4996121;28;20041;-74
2021/12/17 14:02:59;;;;;;;7.25;4.05;;;10.00;99.90;;;;;;4996451;28;20379;-74
2021/12/17 14:05:40;;;;;;;6.93;4.32;;;9.90;99.90;;;;;;4996370;28;20540;-74
2021/12/17 14:08:08;;;;;;;5.35;3.40;;;9.90;99.90;;;;;;4996407;28;20034;-74
2021/12/17 14:10:35;;;;;;;6.47;4.40;;;9.90;99.90;;;;;;4996071;28;20038;-73
2021/12/17 14:13:02;;;;;;;4.60;3.60;;;9.90;99.90;;;;;;4996359;28;20414;-74
2021/12/17 14:15:30;;;;;;;6.93;5.47;;;9.90;99.90;;;;;;4980096;28;20038;-74
2021/12/17 14:17:59;;;;;;;9.02;6.18;;;9.90;99.90;;;;;;4995948;28;20125;-74
2021/12/17 14:20:27;;;;;;;15.40;10.18;;;9.90;99.90;;;;;;4995928;28;20033;-74
2021/12/17 14:23:04;;;;;;;10.45;8.65;;;9.90;99.90;;;;;;4996198;28;20042;-73
2021/12/17 14:25:32;;;;;;;13.18;8.57;;;9.90;99.90;;;;;;4995903;28;20041;-73
2021/12/17 14:28:01;;;;;;;6.05;5.43;;;9.80;99.90;;;;;;4995896;28;20038;-73
2021/12/17 14:30:34;;;;;;;7.40;5.55;;;9.90;99.90;;;;;;4995776;28;20099;-73
2021/12/17 14:33:22;;;;;;;6.65;5.07;;;9.80;99.90;;;;;;4995778;28;20053;-73
2021/12/17 14:35:55;;;;;;;6.13;4.80;;;9.80;99.90;;;;;;4995727;28;20050;-73
2021/12/17 14:38:32;;;;;;;6.63;4.93;;;9.80;99.90;;;;;;4995001;28;20116;-73
2021/12/17 14:41:00;;;;;;;7.70;5.10;;;9.80;99.90;;;;;;4995832;28;20120;-73
2021/12/17 14:43:37;;;;;;;7.80;5.10;;;9.80;99.90;;;;;;4995678;28;20052;-73
2021/12/17 14:46:14;;;;;;;7.25;5.57;;;9.80;99.90;;;;;;4995891;28;20517;-73
2021/12/17 14:48:53;;;;;;;9.52;4.80;;;9.80;99.90;;;;;;4995704;28;20502;-73
2021/12/17 15:04:44;;;;;;;6.65;5.60;;;9.70;99.90;;;;;;4995721;28;20128;-74
2021/12/17 15:07:10;;;;;;;6.85;6.15;;;9.80;99.90;;;;;;4995548;28;20053;-74
2021/12/17 15:09:42;;;;;;;7.18;5.43;;;9.70;99.90;;;;;;4995485;28;20037;-74
2021/12/17 15:12:55;;;;;;;6.63;5.93;;;9.70;99.90;;;;;;4995536;28;20053;-74
2021/12/17 15:15:05;;;;;;;7.25;5.88;;;9.70;99.90;;;;;;4995093;28;20140;-75
2021/12/17 15:17:32;;;;;;;9.65;6.13;;;9.70;99.90;;;;;;4995456;28;20521;-75
2021/12/17 15:19:58;;;;;;;8.02;6.00;;;9.70;99.90;;;;;;4995232;28;20034;-74
2021/12/17 15:22:23;;;;;;;5.80;5.05;;;9.70;99.90;;;;;;4995641;28;20053;-74
2021/12/17 15:24:49;;;;;;;6.38;5.38;;;9.70;99.90;;;;;;4995301;28;20422;-75
2021/12/17 15:27:15;;;;;;;8.32;6.85;;;9.70;99.90;;;;;;4995638;28;20120;-75
2021/12/17 15:29:40;;;;;;;11.23;8.68;;;9.70;99.90;;;;;;4995293;28;20498;-74
2021/12/17 15:32:06;;;;;;;7.38;5.45;;;9.70;99.90;;;;;;4995324;28;20077;-74
2021/12/17 15:34:32;;;;;;;5.38;4.57;;;9.70;99.90;;;;;;4995387;28;20045;-74
2021/12/17 15:36:58;;;;;;;6.35;5.00;;;9.70;99.90;;;;;;4995604;28;20050;-74
2021/12/17 15:39:26;;;;;;;5.43;4.25;;;9.70;99.90;;;;;;4995392;28;20034;-74
2021/12/17 15:41:53;;;;;;;6.22;4.85;;;9.70;99.90;;;;;;4995166;28;20573;-74
2021/12/17 15:44:18;;;;;;;5.32;4.82;;;9.70;99.90;;;;;;4995128;28;20070;-75
2021/12/17 15:46:44;;;;;;;7.65;5.50;;;9.70;99.90;;;;;;4995365;28;20080;-74
2021/12/17 15:49:09;;;;;;;8.10;6.32;;;9.70;99.90;;;;;;4995462;28;20406;-74
2021/12/17 15:51:36;;;;;;;10.70;6.82;;;9.70;99.90;;;;;;4998327;28;20543;-74
2021/12/17 15:54:03;;;;;;;8.85;6.15;;;9.70;99.90;;;;;;4998704;28;20092;-74
2021/12/17 15:56:31;;;;;;;10.18;6.90;;;9.60;99.90;;;;;;4998729;28;20033;-74
2021/12/17 15:58:57;;;;;;;9.52;6.35;;;9.60;99.90;;;;;;4998373;28;20569;-74